sensor_id;sensor_type;location;lat;lon;timestamp;temperature;humidity
21445;DHT22;10883;51.946;20.140;2023-04-24T00:00:11;9.00;99.90
21445;DHT22;10883;51.946;20.140;2023-04-24T00:02:41;8.90;99.90
21445;DHT22;10883;51.946;20.140;2023-04-24T00:05:13;8.90;99.90
21445;DHT22;10883;51.946;20.140;2023-04-24T00:07:39;8.90;99.90
21445;DHT22;10883;51.946;20.140;2023-04-24T00:10:06;8.90;99.90
21445;DHT22;10883;51.946;20.140;2023-04-24T00:12:32;8.90;99.90
21445;DHT22;10883;51.946;20.140;2023-04-24T00:14:58;8.80;99.90
21445;DHT22;10883;51.946;20.140;2023-04-24T00:17:24;8.80;99.90
21445;DHT22;10883;51.946;20.140;2023-04-24T00:19:50;8.80;99.90
21445;DHT22;10883;51.946;20.140;2023-04-24T00:22:17;8.80;99.90
21445;DHT22;10883;51.946;20.140;2023-04-24T00:24:43;8.90;99.90
21445;DHT22;10883;51.946;20.140;2023-04-24T00:27:09;8.90;99.90
21445;DHT22;10883;51.946;20.140;2023-04-24T00:29:35;8.80;99.90
21445;DHT22;10883;51.946;20.140;2023-04-24T00:32:00;8.80;99.90
21445;DHT22;10883;51.946;20.140;2023-04-24T00:34:26;8.70;99.90
21445;DHT22;10883;51.946;20.140;2023-04-24T00:36:52;8.70;99.90
21445;DHT22;10883;51.946;20.140;2023-04-24T00:39:21;8.70;99.90
21445;DHT22;10883;51.946;20.140;2023-04-24T00:41:48;8.60;99.90
21445;DHT22;10883;51.946;20.140;2023-04-24T00:44:14;8.60;99.90
21445;DHT22;10883;51.946;20.140;2023-04-24T00:46:41;8.50;99.90
21445;DHT22;10883;51.946;20.140;2023-04-24T00:49:07;8.50;99.90
21445;DHT22;10883;51.946;20.140;2023-04-24T00:51:33;8.50;99.90
21445;DHT22;10883;51.946;20.140;2023-04-24T00:54:00;8.50;99.90
21445;DHT22;10883;51.946;20.140;2023-04-24T00:56:27;8.50;99.90
21445;DHT22;10883;51.946;20.140;2023-04-24T00:58:53;8.40;99.90
21445;DHT22;10883;51.946;20.140;2023-04-24T01:01:21;8.40;99.90
21445;DHT22;10883;51.946;20.140;2023-04-24T01:03:48;8.60;99.90
21445;DHT22;10883;51.946;20.140;2023-04-24T01:06:15;8.60;99.90
21445;DHT22;10883;51.946;20.140;2023-04-24T01:08:41;8.60;99.90
21445;DHT22;10883;51.946;20.140;2023-04-24T01:11:07;8.60;99.90
21445;DHT22;10883;51.946;20.140;2023-04-24T01:13:33;8.60;99.90
21445;DHT22;10883;51.946;20.140;2023-04-24T01:16:00;8.60;99.90
21445;DHT22;10883;51.946;20.140;2023-04-24T01:18:26;8.50;99.90
21445;DHT22;10883;51.946;20.140;2023-04-24T01:20:55;8.60;99.90
21445;DHT22;10883;51.946;20.140;2023-04-24T01:23:22;8.80;99.90
21445;DHT22;10883;51.946;20.140;2023-04-24T01:25:49;8.90;99.90
21445;DHT22;10883;51.946;20.140;2023-04-24T01:28:16;9.10;99.90
21445;DHT22;10883;51.946;20.140;2023-04-24T01:30:42;9.10;99.90
21445;DHT22;10883;51.946;20.140;2023-04-24T01:33:08;9.10;99.90
21445;DHT22;10883;51.946;20.140;2023-04-24T01:35:34;9.00;99.90
21445;DHT22;10883;51.946;20.140;2023-04-24T01:38:01;9.00;99.90
21445;DHT22;10883;51.946;20.140;2023-04-24T01:40:27;9.10;99.90
21445;DHT22;10883;51.946;20.140;2023-04-24T01:42:53;9.10;99.90
21445;DHT22;10883;51.946;20.140;2023-04-24T01:45:19;9.00;99.90
21445;DHT22;10883;51.946;20.140;2023-04-24T01:47:45;9.00;99.90
21445;DHT22;10883;51.946;20.140;2023-04-24T01:50:12;8.90;99.90
21445;DHT22;10883;51.946;20.140;2023-04-24T01:52:38;8.90;99.90
21445;DHT22;10883;51.946;20.140;2023-04-24T01:55:04;8.80;99.90
21445;DHT22;10883;51.946;20.140;2023-04-24T01:57:31;8.70;99.90
21445;DHT22;10883;51.946;20.140;2023-04-24T01:59:57;8.40;99.90
21445;DHT22;10883;51.946;20.140;2023-04-24T02:02:24;8.50;99.90
21445;DHT22;10883;51.946;20.140;2023-04-24T02:04:50;8.50;99.90
21445;DHT22;10883;51.946;20.140;2023-04-24T02:07:16;8.50;99.90
21445;DHT22;10883;51.946;20.140;2023-04-24T02:09:42;8.50;99.90
21445;DHT22;10883;51.946;20.140;2023-04-24T02:12:07;8.50;99.90
21445;DHT22;10883;51.946;20.140;2023-04-24T02:14:33;8.40;99.90
21445;DHT22;10883;51.946;20.140;2023-04-24T02:16:59;8.40;99.90
21445;DHT22;10883;51.946;20.140;2023-04-24T02:19:26;8.40;99.90
21445;DHT22;10883;51.946;20.140;2023-04-24T02:21:52;8.40;99.90
21445;DHT22;10883;51.946;20.140;2023-04-24T02:24:18;8.40;99.90
21445;DHT22;10883;51.946;20.140;2023-04-24T02:26:43;8.30;99.90
21445;DHT22;10883;51.946;20.140;2023-04-24T02:29:09;8.30;99.90
21445;DHT22;10883;51.946;20.140;2023-04-24T02:31:35;8.30;99.90
21445;DHT22;10883;51.946;20.140;2023-04-24T02:34:01;8.30;99.90
21445;DHT22;10883;51.946;20.140;2023-04-24T02:36:27;8.20;99.90
21445;DHT22;10883;51.946;20.140;2023-04-24T02:38:53;8.10;99.90
21445;DHT22;10883;51.946;20.140;2023-04-24T02:41:18;8.00;99.90
21445;DHT22;10883;51.946;20.140;2023-04-24T02:43:45;8.00;99.90
21445;DHT22;10883;51.946;20.140;2023-04-24T02:46:11;8.00;99.90
21445;DHT22;10883;51.946;20.140;2023-04-24T02:48:37;8.00;99.90
21445;DHT22;10883;51.946;20.140;2023-04-24T02:51:03;7.90;99.90
21445;DHT22;10883;51.946;20.140;2023-04-24T02:53:28;8.20;99.90
21445;DHT22;10883;51.946;20.140;2023-04-24T02:55:56;7.90;99.90
21445;DHT22;10883;51.946;20.140;2023-04-24T02:58:22;7.90;99.90
21445;DHT22;10883;51.946;20.140;2023-04-24T03:00:48;7.90;99.90
21445;DHT22;10883;51.946;20.140;2023-04-24T03:03:14;7.80;99.90
21445;DHT22;10883;51.946;20.140;2023-04-24T03:05:40;7.80;99.90
21445;DHT22;10883;51.946;20.140;2023-04-24T03:08:06;7.80;99.90
21445;DHT22;10883;51.946;20.140;2023-04-24T03:10:32;7.80;99.90
21445;DHT22;10883;51.946;20.140;2023-04-24T03:12:58;7.80;99.90
21445;DHT22;10883;51.946;20.140;2023-04-24T03:15:23;7.80;99.90
21445;DHT22;10883;51.946;20.140;2023-04-24T03:17:49;7.70;99.90
21445;DHT22;10883;51.946;20.140;2023-04-24T03:20:15;7.70;99.90
21445;DHT22;10883;51.946;20.140;2023-04-24T03:22:41;7.60;99.90
21445;DHT22;10883;51.946;20.140;2023-04-24T03:25:07;7.70;99.90
21445;DHT22;10883;51.946;20.140;2023-04-24T03:27:34;7.70;99.90
21445;DHT22;10883;51.946;20.140;2023-04-24T03:30:00;7.60;99.90
21445;DHT22;10883;51.946;20.140;2023-04-24T03:32:27;7.70;99.90
21445;DHT22;10883;51.946;20.140;2023-04-24T03:34:52;7.70;99.90
21445;DHT22;10883;51.946;20.140;2023-04-24T03:37:18;7.90;99.90
21445;DHT22;10883;51.946;20.140;2023-04-24T03:39:44;8.20;99.90
21445;DHT22;10883;51.946;20.140;2023-04-24T03:42:10;8.20;99.90
21445;DHT22;10883;51.946;20.140;2023-04-24T03:44:36;8.40;99.90
21445;DHT22;10883;51.946;20.140;2023-04-24T03:47:02;8.40;99.90
21445;DHT22;10883;51.946;20.140;2023-04-24T03:49:27;8.50;99.90
21445;DHT22;10883;51.946;20.140;2023-04-24T03:51:53;8.60;99.90
21445;DHT22;10883;51.946;20.140;2023-04-24T03:54:19;8.60;99.90
21445;DHT22;10883;51.946;20.140;2023-04-24T03:56:45;8.80;99.90
21445;DHT22;10883;51.946;20.140;2023-04-24T03:59:11;9.00;99.90
21445;DHT22;10883;51.946;20.140;2023-04-24T04:01:37;9.10;99.90
21445;DHT22;10883;51.946;20.140;2023-04-24T04:04:04;9.20;99.90
21445;DHT22;10883;51.946;20.140;2023-04-24T04:06:30;9.40;99.90
21445;DHT22;10883;51.946;20.140;2023-04-24T04:08:58;9.50;99.90
21445;DHT22;10883;51.946;20.140;2023-04-24T04:11:25;9.60;99.90
21445;DHT22;10883;51.946;20.140;2023-04-24T04:13:50;9.60;99.90
21445;DHT22;10883;51.946;20.140;2023-04-24T04:16:16;9.70;99.90
21445;DHT22;10883;51.946;20.140;2023-04-24T04:18:45;9.80;99.90
21445;DHT22;10883;51.946;20.140;2023-04-24T04:21:11;10.00;99.90
21445;DHT22;10883;51.946;20.140;2023-04-24T04:23:37;10.10;99.90
21445;DHT22;10883;51.946;20.140;2023-04-24T04:26:03;10.30;99.90
21445;DHT22;10883;51.946;20.140;2023-04-24T04:28:30;10.40;99.90
21445;DHT22;10883;51.946;20.140;2023-04-24T04:30:57;10.60;99.90
21445;DHT22;10883;51.946;20.140;2023-04-24T04:33:24;10.60;99.90
21445;DHT22;10883;51.946;20.140;2023-04-24T04:35:50;10.80;99.90
21445;DHT22;10883;51.946;20.140;2023-04-24T04:38:19;10.80;99.90
21445;DHT22;10883;51.946;20.140;2023-04-24T04:40:46;10.90;99.90
21445;DHT22;10883;51.946;20.140;2023-04-24T04:43:12;10.90;99.90
21445;DHT22;10883;51.946;20.140;2023-04-24T04:45:40;11.00;99.90
21445;DHT22;10883;51.946;20.140;2023-04-24T04:48:08;11.00;99.90
21445;DHT22;10883;51.946;20.140;2023-04-24T04:50:37;11.10;99.90
21445;DHT22;10883;51.946;20.140;2023-04-24T04:53:03;11.10;99.90
21445;DHT22;10883;51.946;20.140;2023-04-24T04:55:29;11.10;99.90
21445;DHT22;10883;51.946;20.140;2023-04-24T04:57:55;11.10;99.90
21445;DHT22;10883;51.946;20.140;2023-04-24T05:00:22;11.20;99.90
21445;DHT22;10883;51.946;20.140;2023-04-24T05:02:51;11.20;99.90
21445;DHT22;10883;51.946;20.140;2023-04-24T05:05:17;11.30;99.90
21445;DHT22;10883;51.946;20.140;2023-04-24T05:07:43;11.40;99.90
21445;DHT22;10883;51.946;20.140;2023-04-24T05:10:09;11.40;99.90
21445;DHT22;10883;51.946;20.140;2023-04-24T05:12:36;11.40;99.90
21445;DHT22;10883;51.946;20.140;2023-04-24T05:15:02;11.40;99.90
21445;DHT22;10883;51.946;20.140;2023-04-24T05:17:28;11.50;99.90
21445;DHT22;10883;51.946;20.140;2023-04-24T05:19:54;11.50;99.90
21445;DHT22;10883;51.946;20.140;2023-04-24T05:22:20;11.60;99.90
21445;DHT22;10883;51.946;20.140;2023-04-24T05:24:47;11.60;99.90
21445;DHT22;10883;51.946;20.140;2023-04-24T05:27:13;11.70;99.90
21445;DHT22;10883;51.946;20.140;2023-04-24T05:29:39;11.80;99.90
21445;DHT22;10883;51.946;20.140;2023-04-24T05:32:05;11.90;99.90
21445;DHT22;10883;51.946;20.140;2023-04-24T05:34:32;11.90;99.90
21445;DHT22;10883;51.946;20.140;2023-04-24T05:36:57;12.00;99.90
21445;DHT22;10883;51.946;20.140;2023-04-24T05:39:23;12.10;99.90
21445;DHT22;10883;51.946;20.140;2023-04-24T05:41:50;12.10;99.90
21445;DHT22;10883;51.946;20.140;2023-04-24T05:44:16;12.20;99.90
21445;DHT22;10883;51.946;20.140;2023-04-24T05:46:42;12.40;99.90
21445;DHT22;10883;51.946;20.140;2023-04-24T05:49:08;12.50;99.90
21445;DHT22;10883;51.946;20.140;2023-04-24T05:51:34;12.60;99.90
21445;DHT22;10883;51.946;20.140;2023-04-24T05:53:59;12.80;99.90
21445;DHT22;10883;51.946;20.140;2023-04-24T05:56:26;13.00;99.90
21445;DHT22;10883;51.946;20.140;2023-04-24T05:58:52;13.20;99.90
21445;DHT22;10883;51.946;20.140;2023-04-24T06:01:18;13.30;99.90
21445;DHT22;10883;51.946;20.140;2023-04-24T06:03:45;13.50;99.90
21445;DHT22;10883;51.946;20.140;2023-04-24T06:06:10;13.70;99.90
21445;DHT22;10883;51.946;20.140;2023-04-24T06:08:36;13.90;99.90
21445;DHT22;10883;51.946;20.140;2023-04-24T06:11:02;14.20;99.90
21445;DHT22;10883;51.946;20.140;2023-04-24T06:13:28;14.40;99.90
21445;DHT22;10883;51.946;20.140;2023-04-24T06:15:53;14.50;99.90
21445;DHT22;10883;51.946;20.140;2023-04-24T06:18:19;14.60;99.90
21445;DHT22;10883;51.946;20.140;2023-04-24T06:20:46;14.60;99.90
21445;DHT22;10883;51.946;20.140;2023-04-24T06:23:12;14.70;99.90
21445;DHT22;10883;51.946;20.140;2023-04-24T06:25:38;14.70;99.90
21445;DHT22;10883;51.946;20.140;2023-04-24T06:28:04;14.80;99.90
21445;DHT22;10883;51.946;20.140;2023-04-24T06:30:30;14.80;99.90
21445;DHT22;10883;51.946;20.140;2023-04-24T06:32:56;14.90;99.90
21445;DHT22;10883;51.946;20.140;2023-04-24T06:35:22;14.90;99.90
21445;DHT22;10883;51.946;20.140;2023-04-24T06:37:48;14.90;99.90
21445;DHT22;10883;51.946;20.140;2023-04-24T06:40:14;14.90;99.90
21445;DHT22;10883;51.946;20.140;2023-04-24T06:42:40;15.00;99.90
21445;DHT22;10883;51.946;20.140;2023-04-24T06:45:06;15.00;99.90
21445;DHT22;10883;51.946;20.140;2023-04-24T06:47:32;15.00;99.90
21445;DHT22;10883;51.946;20.140;2023-04-24T06:49:58;15.00;99.90
21445;DHT22;10883;51.946;20.140;2023-04-24T06:52:24;15.20;99.90
21445;DHT22;10883;51.946;20.140;2023-04-24T06:54:50;15.10;99.90
21445;DHT22;10883;51.946;20.140;2023-04-24T06:57:15;15.30;99.90
21445;DHT22;10883;51.946;20.140;2023-04-24T06:59:42;15.30;99.90
21445;DHT22;10883;51.946;20.140;2023-04-24T07:02:08;15.30;99.90
21445;DHT22;10883;51.946;20.140;2023-04-24T07:04:33;15.50;99.90
21445;DHT22;10883;51.946;20.140;2023-04-24T07:06:59;15.60;99.90
21445;DHT22;10883;51.946;20.140;2023-04-24T07:09:26;15.70;99.90
21445;DHT22;10883;51.946;20.140;2023-04-24T07:11:52;15.80;99.90
21445;DHT22;10883;51.946;20.140;2023-04-24T07:14:19;16.10;99.90
21445;DHT22;10883;51.946;20.140;2023-04-24T07:16:45;16.10;99.90
21445;DHT22;10883;51.946;20.140;2023-04-24T07:19:11;16.10;99.90
21445;DHT22;10883;51.946;20.140;2023-04-24T07:21:37;16.30;99.90
21445;DHT22;10883;51.946;20.140;2023-04-24T07:24:03;16.60;99.90
21445;DHT22;10883;51.946;20.140;2023-04-24T07:26:29;17.20;99.90
21445;DHT22;10883;51.946;20.140;2023-04-24T07:28:55;17.60;99.90
21445;DHT22;10883;51.946;20.140;2023-04-24T07:31:21;18.10;99.90
21445;DHT22;10883;51.946;20.140;2023-04-24T07:33:48;18.70;99.90
21445;DHT22;10883;51.946;20.140;2023-04-24T07:36:13;19.00;99.90
21445;DHT22;10883;51.946;20.140;2023-04-24T07:38:47;19.40;99.90
21445;DHT22;10883;51.946;20.140;2023-04-24T07:41:13;19.80;99.90
21445;DHT22;10883;51.946;20.140;2023-04-24T07:43:40;19.90;99.90
21445;DHT22;10883;51.946;20.140;2023-04-24T07:46:06;19.80;99.90
21445;DHT22;10883;51.946;20.140;2023-04-24T07:48:32;20.10;99.90
21445;DHT22;10883;51.946;20.140;2023-04-24T07:50:58;20.20;99.90
21445;DHT22;10883;51.946;20.140;2023-04-24T07:53:24;20.00;99.90
21445;DHT22;10883;51.946;20.140;2023-04-24T07:55:50;20.30;99.90
21445;DHT22;10883;51.946;20.140;2023-04-24T07:58:16;20.50;99.90
21445;DHT22;10883;51.946;20.140;2023-04-24T08:00:41;20.20;99.90
21445;DHT22;10883;51.946;20.140;2023-04-24T08:03:07;19.90;99.90
21445;DHT22;10883;51.946;20.140;2023-04-24T08:05:33;19.60;99.90
21445;DHT22;10883;51.946;20.140;2023-04-24T08:07:59;19.30;99.90
21445;DHT22;10883;51.946;20.140;2023-04-24T08:10:25;19.00;99.90
21445;DHT22;10883;51.946;20.140;2023-04-24T08:12:51;19.00;99.90
21445;DHT22;10883;51.946;20.140;2023-04-24T08:15:17;19.20;99.90
21445;DHT22;10883;51.946;20.140;2023-04-24T08:17:43;19.40;99.90
21445;DHT22;10883;51.946;20.140;2023-04-24T08:20:10;19.90;99.90
21445;DHT22;10883;51.946;20.140;2023-04-24T08:22:43;20.30;99.90
21445;DHT22;10883;51.946;20.140;2023-04-24T08:25:11;20.70;99.90
21445;DHT22;10883;51.946;20.140;2023-04-24T08:27:36;21.20;99.90
21445;DHT22;10883;51.946;20.140;2023-04-24T08:30:03;21.50;99.90
21445;DHT22;10883;51.946;20.140;2023-04-24T08:32:30;21.60;96.60
21445;DHT22;10883;51.946;20.140;2023-04-24T08:34:56;21.90;97.80
21445;DHT22;10883;51.946;20.140;2023-04-24T08:37:26;21.80;96.50
21445;DHT22;10883;51.946;20.140;2023-04-24T08:39:53;21.80;93.70
21445;DHT22;10883;51.946;20.140;2023-04-24T08:42:19;21.80;94.20
21445;DHT22;10883;51.946;20.140;2023-04-24T08:44:49;22.20;93.20
21445;DHT22;10883;51.946;20.140;2023-04-24T08:47:15;22.30;92.00
21445;DHT22;10883;51.946;20.140;2023-04-24T08:49:41;21.80;87.90
21445;DHT22;10883;51.946;20.140;2023-04-24T08:52:08;21.40;88.50
21445;DHT22;10883;51.946;20.140;2023-04-24T08:54:35;21.00;90.10
21445;DHT22;10883;51.946;20.140;2023-04-24T08:57:02;21.00;90.80
21445;DHT22;10883;51.946;20.140;2023-04-24T08:59:30;20.80;91.60
21445;DHT22;10883;51.946;20.140;2023-04-24T09:01:56;20.90;91.50
21445;DHT22;10883;51.946;20.140;2023-04-24T09:04:23;21.20;91.90
21445;DHT22;10883;51.946;20.140;2023-04-24T09:06:56;21.60;91.20
21445;DHT22;10883;51.946;20.140;2023-04-24T09:09:23;21.80;90.60
21445;DHT22;10883;51.946;20.140;2023-04-24T09:11:50;21.80;88.40
21445;DHT22;10883;51.946;20.140;2023-04-24T09:14:16;22.00;89.20
21445;DHT22;10883;51.946;20.140;2023-04-24T09:16:42;22.30;87.90
21445;DHT22;10883;51.946;20.140;2023-04-24T09:19:08;22.60;87.90
21445;DHT22;10883;51.946;20.140;2023-04-24T09:21:35;22.70;84.70
21445;DHT22;10883;51.946;20.140;2023-04-24T09:24:03;22.80;83.20
21445;DHT22;10883;51.946;20.140;2023-04-24T09:26:30;23.10;89.20
21445;DHT22;10883;51.946;20.140;2023-04-24T09:29:00;22.80;87.10
21445;DHT22;10883;51.946;20.140;2023-04-24T09:31:28;23.00;85.60
21445;DHT22;10883;51.946;20.140;2023-04-24T09:34:01;23.00;85.90
21445;DHT22;10883;51.946;20.140;2023-04-24T09:36:38;23.60;88.10
21445;DHT22;10883;51.946;20.140;2023-04-24T09:39:10;23.80;78.50
21445;DHT22;10883;51.946;20.140;2023-04-24T09:41:44;24.90;80.80
21445;DHT22;10883;51.946;20.140;2023-04-24T09:44:13;27.80;76.10
21445;DHT22;10883;51.946;20.140;2023-04-24T09:46:40;29.70;72.40
21445;DHT22;10883;51.946;20.140;2023-04-24T09:49:11;30.30;68.50
21445;DHT22;10883;51.946;20.140;2023-04-24T09:51:38;28.40;70.40
21445;DHT22;10883;51.946;20.140;2023-04-24T09:54:04;27.60;73.70
21445;DHT22;10883;51.946;20.140;2023-04-24T09:56:36;27.00;74.50
21445;DHT22;10883;51.946;20.140;2023-04-24T09:59:06;26.20;75.50
21445;DHT22;10883;51.946;20.140;2023-04-24T10:01:32;26.30;80.10
21445;DHT22;10883;51.946;20.140;2023-04-24T10:03:59;25.70;77.60
21445;DHT22;10883;51.946;20.140;2023-04-24T10:06:34;25.10;75.20
21445;DHT22;10883;51.946;20.140;2023-04-24T10:09:02;24.90;75.00
21445;DHT22;10883;51.946;20.140;2023-04-24T10:11:30;25.10;77.10
21445;DHT22;10883;51.946;20.140;2023-04-24T10:13:56;25.10;76.20
21445;DHT22;10883;51.946;20.140;2023-04-24T10:16:23;25.30;78.60
21445;DHT22;10883;51.946;20.140;2023-04-24T10:18:50;25.10;73.70
21445;DHT22;10883;51.946;20.140;2023-04-24T10:21:19;25.40;82.10
21445;DHT22;10883;51.946;20.140;2023-04-24T10:23:45;25.70;72.70
21445;DHT22;10883;51.946;20.140;2023-04-24T10:26:16;25.00;74.20
21445;DHT22;10883;51.946;20.140;2023-04-24T10:28:46;24.80;72.30
21445;DHT22;10883;51.946;20.140;2023-04-24T10:31:14;24.50;74.10
21445;DHT22;10883;51.946;20.140;2023-04-24T10:33:43;24.30;73.10
21445;DHT22;10883;51.946;20.140;2023-04-24T10:36:12;24.40;73.10
21445;DHT22;10883;51.946;20.140;2023-04-24T10:38:41;24.40;73.70
21445;DHT22;10883;51.946;20.140;2023-04-24T10:41:13;24.50;75.70
21445;DHT22;10883;51.946;20.140;2023-04-24T10:43:45;24.80;72.80
21445;DHT22;10883;51.946;20.140;2023-04-24T10:46:19;24.70;71.80
21445;DHT22;10883;51.946;20.140;2023-04-24T10:48:53;24.00;71.00
21445;DHT22;10883;51.946;20.140;2023-04-24T10:51:22;24.30;72.00
21445;DHT22;10883;51.946;20.140;2023-04-24T10:53:52;24.60;72.40
21445;DHT22;10883;51.946;20.140;2023-04-24T10:56:18;25.30;74.20
21445;DHT22;10883;51.946;20.140;2023-04-24T10:58:50;25.80;71.40
21445;DHT22;10883;51.946;20.140;2023-04-24T11:01:25;25.90;68.90
21445;DHT22;10883;51.946;20.140;2023-04-24T11:03:56;25.40;70.50
21445;DHT22;10883;51.946;20.140;2023-04-24T11:06:49;25.30;70.50
21445;DHT22;10883;51.946;20.140;2023-04-24T11:09:20;25.30;69.00
21445;DHT22;10883;51.946;20.140;2023-04-24T11:11:47;25.50;71.90
21445;DHT22;10883;51.946;20.140;2023-04-24T11:14:16;25.20;68.90
21445;DHT22;10883;51.946;20.140;2023-04-24T11:21:47;24.00;72.10
21445;DHT22;10883;51.946;20.140;2023-04-24T11:32:26;24.90;68.50
21445;DHT22;10883;51.946;20.140;2023-04-24T11:34:57;25.10;76.90
21445;DHT22;10883;51.946;20.140;2023-04-24T11:37:26;25.10;72.70
21445;DHT22;10883;51.946;20.140;2023-04-24T11:39:56;24.70;73.20
21445;DHT22;10883;51.946;20.140;2023-04-24T11:42:23;24.20;73.00
21445;DHT22;10883;51.946;20.140;2023-04-24T11:44:51;24.00;74.50
21445;DHT22;10883;51.946;20.140;2023-04-24T11:47:17;23.80;74.70
21445;DHT22;10883;51.946;20.140;2023-04-24T11:49:43;23.20;75.10
21445;DHT22;10883;51.946;20.140;2023-04-24T11:52:09;22.80;77.10
21445;DHT22;10883;51.946;20.140;2023-04-24T11:54:36;22.20;80.90
21445;DHT22;10883;51.946;20.140;2023-04-24T11:57:05;21.40;83.60
21445;DHT22;10883;51.946;20.140;2023-04-24T11:59:36;20.80;86.90
21445;DHT22;10883;51.946;20.140;2023-04-24T12:02:03;20.20;90.50
21445;DHT22;10883;51.946;20.140;2023-04-24T12:04:40;19.60;92.90
21445;DHT22;10883;51.946;20.140;2023-04-24T12:07:07;18.90;99.70
21445;DHT22;10883;51.946;20.140;2023-04-24T12:09:43;18.50;99.90
21445;DHT22;10883;51.946;20.140;2023-04-24T12:12:11;18.10;99.90
21445;DHT22;10883;51.946;20.140;2023-04-24T12:14:57;17.80;99.90
21445;DHT22;10883;51.946;20.140;2023-04-24T12:17:30;17.80;99.90
21445;DHT22;10883;51.946;20.140;2023-04-24T12:20:01;17.60;99.90
21445;DHT22;10883;51.946;20.140;2023-04-24T12:22:49;17.70;99.90
21445;DHT22;10883;51.946;20.140;2023-04-24T12:25:18;17.80;99.90
21445;DHT22;10883;51.946;20.140;2023-04-24T12:27:45;17.60;99.90
21445;DHT22;10883;51.946;20.140;2023-04-24T12:30:16;17.50;99.90
21445;DHT22;10883;51.946;20.140;2023-04-24T12:32:48;17.40;99.90
21445;DHT22;10883;51.946;20.140;2023-04-24T12:35:25;17.30;99.90
21445;DHT22;10883;51.946;20.140;2023-04-24T12:37:51;17.30;99.90
21445;DHT22;10883;51.946;20.140;2023-04-24T12:40:18;17.30;99.90
21445;DHT22;10883;51.946;20.140;2023-04-24T12:42:51;17.10;99.90
21445;DHT22;10883;51.946;20.140;2023-04-24T12:45:18;17.20;99.90
21445;DHT22;10883;51.946;20.140;2023-04-24T12:47:45;17.30;99.90
21445;DHT22;10883;51.946;20.140;2023-04-24T12:50:14;17.40;99.90
21445;DHT22;10883;51.946;20.140;2023-04-24T12:52:41;17.60;99.90
21445;DHT22;10883;51.946;20.140;2023-04-24T12:55:07;17.70;99.90
21445;DHT22;10883;51.946;20.140;2023-04-24T12:57:34;17.70;99.90
21445;DHT22;10883;51.946;20.140;2023-04-24T13:00:01;17.70;99.90
21445;DHT22;10883;51.946;20.140;2023-04-24T13:02:29;17.80;99.90
21445;DHT22;10883;51.946;20.140;2023-04-24T13:04:56;17.80;99.90
21445;DHT22;10883;51.946;20.140;2023-04-24T13:07:22;17.90;99.90
21445;DHT22;10883;51.946;20.140;2023-04-24T13:09:50;17.90;99.90
21445;DHT22;10883;51.946;20.140;2023-04-24T13:12:16;17.90;99.90
21445;DHT22;10883;51.946;20.140;2023-04-24T13:14:42;18.00;99.90
21445;DHT22;10883;51.946;20.140;2023-04-24T13:17:08;18.20;99.90
21445;DHT22;10883;51.946;20.140;2023-04-24T13:19:40;18.40;99.90
21445;DHT22;10883;51.946;20.140;2023-04-24T13:22:06;18.50;99.90
21445;DHT22;10883;51.946;20.140;2023-04-24T13:24:32;18.80;99.90
21445;DHT22;10883;51.946;20.140;2023-04-24T13:26:59;19.00;99.90
21445;DHT22;10883;51.946;20.140;2023-04-24T13:29:25;19.20;99.90
21445;DHT22;10883;51.946;20.140;2023-04-24T13:31:51;19.40;99.90
21445;DHT22;10883;51.946;20.140;2023-04-24T13:34:19;19.70;99.90
21445;DHT22;10883;51.946;20.140;2023-04-24T13:36:45;20.00;99.90
21445;DHT22;10883;51.946;20.140;2023-04-24T13:39:11;20.20;99.90
21445;DHT22;10883;51.946;20.140;2023-04-24T13:41:37;20.70;99.90
21445;DHT22;10883;51.946;20.140;2023-04-24T13:44:04;21.00;99.60
21445;DHT22;10883;51.946;20.140;2023-04-24T13:46:30;21.40;99.20
21445;DHT22;10883;51.946;20.140;2023-04-24T13:48:57;21.60;97.00
21445;DHT22;10883;51.946;20.140;2023-04-24T13:51:23;21.90;94.30
21445;DHT22;10883;51.946;20.140;2023-04-24T13:53:52;22.20;93.70
21445;DHT22;10883;51.946;20.140;2023-04-24T13:56:18;22.60;93.90
21445;DHT22;10883;51.946;20.140;2023-04-24T13:58:44;23.40;94.00
21445;DHT22;10883;51.946;20.140;2023-04-24T14:01:10;25.10;88.90
21445;DHT22;10883;51.946;20.140;2023-04-24T14:03:37;26.60;83.40
21445;DHT22;10883;51.946;20.140;2023-04-24T14:06:03;27.90;80.70
21445;DHT22;10883;51.946;20.140;2023-04-24T14:08:29;28.80;73.30
21445;DHT22;10883;51.946;20.140;2023-04-24T14:10:55;29.10;72.80
21445;DHT22;10883;51.946;20.140;2023-04-24T14:13:21;29.20;71.00
21445;DHT22;10883;51.946;20.140;2023-04-24T14:15:46;29.70;69.20
21445;DHT22;10883;51.946;20.140;2023-04-24T14:18:12;29.90;67.40
21445;DHT22;10883;51.946;20.140;2023-04-24T14:20:38;29.90;69.40
21445;DHT22;10883;51.946;20.140;2023-04-24T14:23:04;29.80;67.10
21445;DHT22;10883;51.946;20.140;2023-04-24T14:25:30;30.00;66.40
21445;DHT22;10883;51.946;20.140;2023-04-24T14:27:56;28.80;65.30
21445;DHT22;10883;51.946;20.140;2023-04-24T14:30:22;28.40;66.60
21445;DHT22;10883;51.946;20.140;2023-04-24T14:32:48;28.40;70.20
21445;DHT22;10883;51.946;20.140;2023-04-24T14:35:15;28.40;70.00
21445;DHT22;10883;51.946;20.140;2023-04-24T14:37:40;28.90;69.50
21445;DHT22;10883;51.946;20.140;2023-04-24T14:40:07;28.60;67.40
21445;DHT22;10883;51.946;20.140;2023-04-24T14:42:34;28.80;63.60
21445;DHT22;10883;51.946;20.140;2023-04-24T14:45:00;28.90;65.10
21445;DHT22;10883;51.946;20.140;2023-04-24T14:47:26;29.10;64.30
21445;DHT22;10883;51.946;20.140;2023-04-24T14:49:52;29.20;63.40
21445;DHT22;10883;51.946;20.140;2023-04-24T14:52:18;28.90;64.60
21445;DHT22;10883;51.946;20.140;2023-04-24T14:54:44;29.00;65.50
21445;DHT22;10883;51.946;20.140;2023-04-24T14:57:10;27.80;63.50
21445;DHT22;10883;51.946;20.140;2023-04-24T14:59:36;27.80;67.00
21445;DHT22;10883;51.946;20.140;2023-04-24T15:02:02;27.50;64.50
21445;DHT22;10883;51.946;20.140;2023-04-24T15:04:28;27.40;63.10
21445;DHT22;10883;51.946;20.140;2023-04-24T15:06:55;27.10;65.20
21445;DHT22;10883;51.946;20.140;2023-04-24T15:09:21;26.90;63.60
21445;DHT22;10883;51.946;20.140;2023-04-24T15:11:48;26.70;64.70
21445;DHT22;10883;51.946;20.140;2023-04-24T15:14:16;26.40;64.10
21445;DHT22;10883;51.946;20.140;2023-04-24T15:16:41;26.20;63.70
21445;DHT22;10883;51.946;20.140;2023-04-24T15:19:08;25.90;65.20
21445;DHT22;10883;51.946;20.140;2023-04-24T15:21:35;25.60;66.00
21445;DHT22;10883;51.946;20.140;2023-04-24T15:24:01;25.30;65.40
21445;DHT22;10883;51.946;20.140;2023-04-24T15:26:26;24.70;65.30
21445;DHT22;10883;51.946;20.140;2023-04-24T15:28:52;24.00;67.10
21445;DHT22;10883;51.946;20.140;2023-04-24T15:31:18;23.10;68.30